Time;durP1;ratioP1;P1;durP2;ratioP2;P2;SDS_P1;SDS_P2;PMS_P1;PMS_P2;Temp;Humidity;BMP_temperature;BMP_pressure;BME280_temperature;BME280_humidity;BME280_pressure;Samples;Min_cycle;Max_cycle;Signal;HPM_P1;HPM_P2
2022/12/16 00:01:14;;;;;;;48.95;29.25;;;;;;;4.19;100.00;99581.53;5072000;28;20024;-73
2022/12/16 00:03:41;;;;;;;49.50;29.42;;;;;;;4.14;100.00;99577.53;5071757;28;20036;-73
2022/12/16 00:06:08;;;;;;;47.97;27.67;;;;;;;4.09;100.00;99561.09;5070204;28;20027;-73
2022/12/16 00:08:36;;;;;;;54.28;29.80;;;;;;;4.10;100.00;99549.53;5071395;28;20099;-73
2022/12/16 00:11:02;;;;;;;46.42;26.83;;;;;;;4.15;100.00;99560.63;5071477;28;20109;-73
2022/12/16 00:13:30;;;;;;;43.90;27.98;;;;;;;4.04;100.00;99537.56;5071356;28;20424;-73
2022/12/16 00:15:56;;;;;;;46.30;28.50;;;;;;;4.15;100.00;99548.22;5070050;28;20385;-73
2022/12/16 00:18:22;;;;;;;46.28;27.88;;;;;;;4.21;100.00;99558.38;5071374;28;20028;-73
2022/12/16 00:20:50;;;;;;;43.58;27.83;;;;;;;4.20;100.00;99555.84;5071247;28;20594;-73
2022/12/16 00:23:16;;;;;;;45.03;27.38;;;;;;;4.04;100.00;99542.03;5071281;28;20400;-72
2022/12/16 00:25:43;;;;;;;42.25;25.88;;;;;;;4.03;100.00;99538.50;5071234;28;20033;-73
2022/12/16 00:28:09;;;;;;;42.70;26.80;;;;;;;4.11;100.00;99553.88;5071163;28;20111;-73
2022/12/16 00:30:35;;;;;;;41.08;25.95;;;;;;;4.21;100.00;99563.69;5070951;28;20463;-73
2022/12/16 00:33:00;;;;;;;40.80;25.83;;;;;;;4.11;100.00;99552.06;5070358;28;20048;-73
2022/12/16 00:35:25;;;;;;;39.00;25.25;;;;;;;4.19;100.00;99555.00;5071290;28;20025;-73
2022/12/16 00:37:51;;;;;;;42.88;26.63;;;;;;;4.24;100.00;99565.28;5070850;28;20109;-73
2022/12/16 00:40:16;;;;;;;41.58;25.45;;;;;;;4.19;100.00;99536.41;5069601;28;20052;-73
2022/12/16 00:42:42;;;;;;;38.58;24.38;;;;;;;4.27;100.00;99549.97;5071301;28;20041;-75
2022/12/16 00:45:07;;;;;;;40.90;25.98;;;;;;;4.25;100.00;99532.44;5071839;28;20028;-75
2022/12/16 00:47:33;;;;;;;39.55;24.88;;;;;;;4.26;100.00;99537.66;5072053;28;20028;-75
2022/12/16 00:49:58;;;;;;;39.72;25.50;;;;;;;4.30;100.00;99546.25;5071969;28;20105;-75
2022/12/16 00:52:24;;;;;;;38.53;25.52;;;;;;;4.27;100.00;99535.84;5072025;28;20028;-75
2022/12/16 00:54:49;;;;;;;35.63;24.35;;;;;;;4.29;100.00;99528.63;5071870;28;20491;-75
2022/12/16 00:57:14;;;;;;;37.47;23.73;;;;;;;4.20;100.00;99514.22;5072174;28;20170;-75
2022/12/16 00:59:40;;;;;;;37.47;23.83;;;;;;;4.10;100.00;99497.28;5071754;28;20035;-74
2022/12/16 01:02:05;;;;;;;40.22;25.27;;;;;;;4.21;100.00;99520.38;5071366;28;20060;-75
2022/12/16 01:04:30;;;;;;;37.05;24.52;;;;;;;4.31;100.00;99530.19;5071689;28;20052;-75
2022/12/16 01:06:56;;;;;;;39.25;25.27;;;;;;;4.32;100.00;99521.28;5070530;28;20028;-75
2022/12/16 01:09:21;;;;;;;39.95;24.42;;;;;;;4.36;100.00;99519.25;5072190;28;20036;-75
2022/12/16 01:11:47;;;;;;;35.35;24.27;;;;;;;4.31;100.00;99513.44;5071652;28;20024;-75
2022/12/16 01:14:12;;;;;;;37.25;25.02;;;;;;;4.22;100.00;99491.06;5072720;28;20044;-75
2022/12/16 01:16:38;;;;;;;37.80;25.85;;;;;;;4.35;100.00;99506.91;5070232;28;20020;-75
2022/12/16 01:19:03;;;;;;;34.75;24.33;;;;;;;4.32;100.00;99486.78;5070161;28;20862;-75
2022/12/16 01:21:29;;;;;;;34.97;23.52;;;;;;;4.17;100.00;99452.59;5069943;28;20025;-75
2022/12/16 01:23:54;;;;;;;35.95;24.58;;;;;;;4.31;100.00;99476.25;5069727;28;20032;-75
2022/12/16 01:26:20;;;;;;;36.08;24.70;;;;;;;4.27;100.00;99465.06;5069844;28;20077;-74
2022/12/16 01:28:49;;;;;;;35.25;24.25;;;;;;;4.24;100.00;99452.00;5068755;28;20465;-75
2022/12/16 01:31:19;;;;;;;37.25;25.10;;;;;;;4.29;100.00;99449.84;5070083;28;20115;-75
2022/12/16 01:33:45;;;;;;;35.95;24.17;;;;;;;4.34;100.00;99463.63;5069681;28;20048;-75
2022/12/16 01:36:10;;;;;;;33.35;23.95;;;;;;;4.25;100.00;99439.56;5070207;28;20127;-75
2022/12/16 01:38:36;;;;;;;32.33;23.50;;;;;;;4.37;100.00;99463.41;5069552;28;20048;-74
2022/12/16 01:41:03;;;;;;;33.53;22.80;;;;;;;4.35;100.00;99472.41;5068805;28;20085;-73
2022/12/16 01:43:34;;;;;;;36.38;23.73;;;;;;;4.24;100.00;99454.66;5071117;28;20027;-73
2022/12/16 01:46:09;;;;;;;34.80;24.52;;;;;;;4.38;100.00;99465.06;5074854;28;20041;-72
2022/12/16 01:48:40;;;;;;;34.08;23.42;;;;;;;4.33;100.00;99456.59;5073904;28;20032;-72
2022/12/16 01:51:20;;;;;;;34.42;23.20;;;;;;;4.37;100.00;99454.56;5073561;28;20046;-72
2022/12/16 01:53:48;;;;;;;32.28;23.23;;;;;;;4.40;100.00;99457.84;5073595;28;20048;-72
2022/12/16 01:56:16;;;;;;;31.58;22.25;;;;;;;4.22;100.00;99423.88;5073427;28;20032;-73
2022/12/16 01:58:44;;;;;;;33.17;22.17;;;;;;;4.34;100.00;99436.22;5073340;28;20461;-73
2022/12/16 02:01:09;;;;;;;30.98;22.20;;;;;;;4.40;100.00;99446.38;5073178;28;20095;-73
2022/12/16 02:03:36;;;;;;;31.92;21.80;;;;;;;4.40;100.00;99447.22;5073233;28;20116;-72
2022/12/16 02:06:04;;;;;;;29.00;21.35;;;;;;;4.34;100.00;99421.16;5073132;28;20695;-73
2022/12/16 02:08:30;;;;;;;30.52;21.77;;;;;;;4.35;100.00;99404.25;5071589;28;20021;-72
2022/12/16 02:11:24;;;;;;;31.40;22.27;;;;;;;4.42;100.00;99404.66;5073073;28;20032;-72
2022/12/16 02:14:05;;;;;;;;;;;;;;;4.45;100.00;99388.50;5073380;28;20051;-73
2022/12/16 02:16:58;;;;;;;33.13;21.73;;;;;;;4.46;100.00;99392.81;5072852;28;20378;-72
2022/12/16 02:19:42;;;;;;;32.45;21.83;;;;;;;4.44;100.00;99379.66;5072889;28;20028;-72
2022/12/16 02:22:22;;;;;;;36.42;23.75;;;;;;;4.42;100.00;99376.28;5072931;28;20542;-72
2022/12/16 02:25:30;;;;;;;31.58;22.58;;;;;;;4.16;100.00;99313.75;5072353;28;20032;-72
2022/12/16 02:28:32;;;;;;;31.60;21.48;;;;;;;4.43;100.00;99342.63;5072490;28;20044;-71
2022/12/16 02:31:18;;;;;;;32.92;22.00;;;;;;;4.23;100.00;99300.88;5072644;28;20563;-72
2022/12/16 02:33:51;;;;;;;36.00;23.95;;;;;;;4.44;100.00;99326.56;5072285;28;20028;-72
2022/12/16 02:36:29;;;;;;;37.30;24.98;;;;;;;4.41;100.00;99325.97;5072657;28;20032;-72
2022/12/16 02:39:16;;;;;;;35.90;24.30;;;;;;;4.33;100.00;99309.81;5070789;28;20068;-72
2022/12/16 02:42:16;;;;;;;35.35;24.30;;;;;;;4.41;100.00;99302.94;5072346;28;20680;-72
2022/12/16 02:44:50;;;;;;;35.80;24.27;;;;;;;4.42;100.00;99290.50;5070687;28;20040;-72
2022/12/16 02:47:15;;;;;;;37.85;25.05;;;;;;;4.20;100.00;99267.44;5071009;28;20078;-72
2022/12/16 02:49:45;;;;;;;41.00;26.35;;;;;;;4.15;100.00;99269.63;5072305;28;20024;-72
2022/12/16 02:52:12;;;;;;;37.63;25.95;;;;;;;4.25;100.00;99304.25;5070459;28;20020;-72
2022/12/16 02:54:38;;;;;;;39.67;27.40;;;;;;;4.26;100.00;99304.13;5071797;28;20025;-72
2022/12/16 02:57:30;;;;;;;39.80;26.20;;;;;;;4.46;100.00;99329.94;5072057;28;20116;-72
2022/12/16 03:00:03;;;;;;;38.45;25.08;;;;;;;4.31;100.00;99296.66;5063718;28;20500;-72
2022/12/16 03:02:31;;;;;;;38.17;25.45;;;;;;;4.44;100.00;99320.41;5072039;28;20036;-72
2022/12/16 03:05:05;;;;;;;41.42;25.98;;;;;;;4.45;100.00;99319.47;5071740;28;20428;-72
2022/12/16 03:07:35;;;;;;;42.85;26.77;;;;;;;4.46;100.00;99310.53;5070489;28;20039;-72
2022/12/16 03:10:05;;;;;;;40.67;26.40;;;;;;;4.50;100.00;99293.38;5072098;28;20058;-72
2022/12/16 03:12:32;;;;;;;42.38;26.88;;;;;;;4.56;100.00;99287.59;5071848;28;20021;-72
2022/12/16 03:14:59;;;;;;;42.20;26.38;;;;;;;4.58;100.00;99267.09;5071804;28;20115;-72
2022/12/16 03:17:27;;;;;;;39.83;26.85;;;;;;;4.64;100.00;99277.19;5071826;28;20035;-72
2022/12/16 03:20:21;;;;;;;41.95;26.90;;;;;;;4.61;100.00;99265.00;5072006;28;20608;-72
2022/12/16 03:22:50;;;;;;;44.38;27.15;;;;;;;4.57;100.00;99257.41;5071667;28;20488;-72
2022/12/16 03:25:18;;;;;;;40.38;26.77;;;;;;;4.52;100.00;99249.00;5070153;28;20040;-72
2022/12/16 03:28:09;;;;;;;40.15;26.90;;;;;;;4.56;100.00;99256.59;5071365;28;20035;-72
2022/12/16 03:30:41;;;;;;;45.42;28.75;;;;;;;4.42;100.00;99222.31;5043946;28;20071;-72
2022/12/16 03:33:25;;;;;;;45.28;28.83;;;;;;;4.58;100.00;99243.19;5071175;28;20020;-72
2022/12/16 03:35:56;;;;;;;49.75;30.08;;;;;;;4.42;100.00;99209.06;5070575;28;20020;-72
2022/12/16 03:38:23;;;;;;;45.28;28.77;;;;;;;4.43;100.00;99210.75;5068855;28;20537;-72
2022/12/16 03:40:50;;;;;;;45.53;29.55;;;;;;;4.53;100.00;99208.19;5070837;28;20098;-72
2022/12/16 03:43:16;;;;;;;48.10;30.27;;;;;;;4.58;100.00;99212.16;5070314;28;20456;-72
2022/12/16 03:45:47;;;;;;;48.13;30.10;;;;;;;4.59;100.00;99199.75;5070417;28;20075;-72
2022/12/16 03:48:14;;;;;;;44.35;29.48;;;;;;;4.71;100.00;99214.69;5070649;28;20036;-72
2022/12/16 03:50:39;;;;;;;47.10;29.42;;;;;;;4.56;100.00;99192.88;5070733;28;20020;-72
2022/12/16 03:53:06;;;;;;;49.33;30.95;;;;;;;4.74;100.00;99246.28;5070141;28;20055;-72
2022/12/16 03:55:32;;;;;;;47.38;29.95;;;;;;;4.73;100.00;99258.72;5070314;28;20029;-75
2022/12/16 03:57:57;;;;;;;44.05;29.10;;;;;;;4.74;100.00;99252.44;5070326;28;20032;-74
2022/12/16 04:00:24;;;;;;;46.38;28.52;;;;;;;4.85;100.00;99254.22;5070559;28;20036;-74
2022/12/16 04:02:49;;;;;;;45.95;29.73;;;;;;;4.80;100.00;99231.69;5070291;28;20024;-74
2022/12/16 04:05:15;;;;;;;45.97;28.25;;;;;;;4.89;100.00;99221.13;5069901;28;20029;-74
2022/12/16 04:07:40;;;;;;;46.05;28.10;;;;;;;4.68;100.00;99185.72;5069398;28;20069;-74
2022/12/16 04:10:07;;;;;;;47.10;29.02;;;;;;;4.89;100.00;99213.16;5068717;28;20045;-74
2022/12/16 04:26:30;;;;;;;47.00;28.83;;;;;;;5.04;100.00;99187.13;5067258;28;20067;-72
2022/12/16 04:28:55;;;;;;;45.45;28.40;;;;;;;4.95;100.00;99166.66;5069001;28;20664;-72
2022/12/16 04:31:21;;;;;;;47.65;30.02;;;;;;;4.92;100.00;99135.03;5068326;28;20032;-72
